sensor_id;sensor_type;location;lat;lon;timestamp;pressure;altitude;pressure_sealevel;temperature;humidity
46756;BME280;32506;52.826;-1.192;2023-04-21T00:01:31;101315.84;;;9.97;44.89
46756;BME280;32506;52.826;-1.192;2023-04-21T00:03:58;101313.38;;;9.96;44.88
46756;BME280;32506;52.826;-1.192;2023-04-21T00:06:24;101311.09;;;9.93;44.83
46756;BME280;32506;52.826;-1.192;2023-04-21T00:08:51;101310.25;;;9.92;44.77
46756;BME280;32506;52.826;-1.192;2023-04-21T00:11:17;101315.97;;;9.89;44.83
46756;BME280;32506;52.826;-1.192;2023-04-21T00:13:42;101313.50;;;9.87;44.84
46756;BME280;32506;52.826;-1.192;2023-04-21T00:16:08;101313.91;;;9.84;44.73
46756;BME280;32506;52.826;-1.192;2023-04-21T00:18:33;101312.44;;;9.82;45.09
46756;BME280;32506;52.826;-1.192;2023-04-21T00:20:59;101313.63;;;9.79;44.83
46756;BME280;32506;52.826;-1.192;2023-04-21T00:23:25;101317.50;;;9.77;44.78
46756;BME280;32506;52.826;-1.192;2023-04-21T00:25:50;101313.38;;;9.74;44.81
46756;BME280;32506;52.826;-1.192;2023-04-21T00:28:16;101308.22;;;9.72;44.82
46756;BME280;32506;52.826;-1.192;2023-04-21T00:30:42;101295.22;;;9.69;44.72
46756;BME280;32506;52.826;-1.192;2023-04-21T00:33:07;101299.94;;;9.67;44.95
46756;BME280;32506;52.826;-1.192;2023-04-21T00:35:32;101299.28;;;9.65;44.99
46756;BME280;32506;52.826;-1.192;2023-04-21T00:37:58;101297.00;;;9.62;44.91
46756;BME280;32506;52.826;-1.192;2023-04-21T00:40:23;101304.22;;;9.62;44.98
46756;BME280;32506;52.826;-1.192;2023-04-21T00:42:49;101293.88;;;9.58;45.40
46756;BME280;32506;52.826;-1.192;2023-04-21T00:45:14;101299.41;;;9.57;45.28
46756;BME280;32506;52.826;-1.192;2023-04-21T00:47:41;101291.59;;;9.55;45.34
46756;BME280;32506;52.826;-1.192;2023-04-21T00:50:07;101294.66;;;9.52;45.26
46756;BME280;32506;52.826;-1.192;2023-04-21T00:52:33;101292.19;;;9.51;45.42
46756;BME280;32506;52.826;-1.192;2023-04-21T00:54:59;101288.06;;;9.48;45.60
46756;BME280;32506;52.826;-1.192;2023-04-21T00:57:26;101288.25;;;9.47;45.41
46756;BME280;32506;52.826;-1.192;2023-04-21T00:59:53;101279.59;;;9.45;45.30
46756;BME280;32506;52.826;-1.192;2023-04-21T01:02:19;101285.94;;;9.44;45.64
46756;BME280;32506;52.826;-1.192;2023-04-21T01:04:45;101283.44;;;9.42;45.69
46756;BME280;32506;52.826;-1.192;2023-04-21T01:07:11;101270.31;;;9.40;45.53
46756;BME280;32506;52.826;-1.192;2023-04-21T01:09:37;101268.03;;;9.37;45.87
46756;BME280;32506;52.826;-1.192;2023-04-21T01:12:07;101258.34;;;9.36;45.86
46756;BME280;32506;52.826;-1.192;2023-04-21T01:14:34;101267.38;;;9.35;46.06
46756;BME280;32506;52.826;-1.192;2023-04-21T01:17:00;101257.69;;;9.34;46.00
46756;BME280;32506;52.826;-1.192;2023-04-21T01:19:27;101263.22;;;9.33;46.31
46756;BME280;32506;52.826;-1.192;2023-04-21T01:21:54;101258.09;;;9.31;46.13
46756;BME280;32506;52.826;-1.192;2023-04-21T01:24:43;101253.75;;;9.30;46.01
46756;BME280;32506;52.826;-1.192;2023-04-21T01:27:14;101244.28;;;9.28;45.75
46756;BME280;32506;52.826;-1.192;2023-04-21T01:29:42;101235.47;;;9.27;45.70
46756;BME280;32506;52.826;-1.192;2023-04-21T01:32:14;101242.00;;;9.24;45.91
46756;BME280;32506;52.826;-1.192;2023-04-21T01:34:40;101231.34;;;9.24;45.90
46756;BME280;32506;52.826;-1.192;2023-04-21T01:37:11;101221.06;;;9.21;45.91
46756;BME280;32506;52.826;-1.192;2023-04-21T01:39:41;101222.88;;;9.21;46.04
46756;BME280;32506;52.826;-1.192;2023-04-21T01:42:08;101216.06;;;9.18;45.90
46756;BME280;32506;52.826;-1.192;2023-04-21T01:44:34;101217.13;;;9.17;46.19
46756;BME280;32506;52.826;-1.192;2023-04-21T01:47:00;101215.44;;;9.16;46.24
46756;BME280;32506;52.826;-1.192;2023-04-21T01:49:25;101210.31;;;9.15;45.92
46756;BME280;32506;52.826;-1.192;2023-04-21T01:51:51;101211.13;;;9.15;46.14
46756;BME280;32506;52.826;-1.192;2023-04-21T01:54:16;101216.84;;;9.12;46.01
46756;BME280;32506;52.826;-1.192;2023-04-21T01:56:42;101215.19;;;9.11;46.13
46756;BME280;32506;52.826;-1.192;2023-04-21T01:59:07;101207.19;;;9.11;45.95
46756;BME280;32506;52.826;-1.192;2023-04-21T02:01:33;101200.19;;;9.10;45.77
46756;BME280;32506;52.826;-1.192;2023-04-21T02:04:01;101200.38;;;9.09;45.74
46756;BME280;32506;52.826;-1.192;2023-04-21T02:06:26;101198.72;;;9.07;45.58
46756;BME280;32506;52.826;-1.192;2023-04-21T02:08:51;101191.09;;;9.04;45.79
46756;BME280;32506;52.826;-1.192;2023-04-21T02:11:17;101202.59;;;9.05;45.84
46756;BME280;32506;52.826;-1.192;2023-04-21T02:13:42;101199.09;;;9.04;45.65
46756;BME280;32506;52.826;-1.192;2023-04-21T02:16:08;101200.13;;;9.03;45.95
46756;BME280;32506;52.826;-1.192;2023-04-21T02:18:33;101202.78;;;9.03;45.82
46756;BME280;32506;52.826;-1.192;2023-04-21T02:20:59;101194.16;;;9.01;45.65
46756;BME280;32506;52.826;-1.192;2023-04-21T02:23:24;101192.31;;;9.02;45.75
46756;BME280;32506;52.826;-1.192;2023-04-21T02:25:50;101186.34;;;9.00;46.16
46756;BME280;32506;52.826;-1.192;2023-04-21T02:28:15;101182.66;;;9.01;46.00
46756;BME280;32506;52.826;-1.192;2023-04-21T02:30:49;101185.31;;;9.01;45.86
46756;BME280;32506;52.826;-1.192;2023-04-21T02:33:18;101171.16;;;9.00;45.89
46756;BME280;32506;52.826;-1.192;2023-04-21T02:35:55;101160.50;;;9.00;46.19
46756;BME280;32506;52.826;-1.192;2023-04-21T02:41:35;101165.19;;;8.98;46.54
46756;BME280;32506;52.826;-1.192;2023-04-21T02:44:00;101156.38;;;8.98;46.58
46756;BME280;32506;52.826;-1.192;2023-04-21T02:46:26;101159.84;;;8.98;46.49
46756;BME280;32506;52.826;-1.192;2023-04-21T02:48:51;101152.91;;;8.97;46.55
46756;BME280;32506;52.826;-1.192;2023-04-21T02:51:17;101151.03;;;8.98;46.71
46756;BME280;32506;52.826;-1.192;2023-04-21T02:53:42;101150.22;;;8.97;46.95
46756;BME280;32506;52.826;-1.192;2023-04-21T02:56:08;101164.38;;;8.98;46.89
46756;BME280;32506;52.826;-1.192;2023-04-21T02:58:34;101153.72;;;8.98;46.87
46756;BME280;32506;52.826;-1.192;2023-04-21T03:01:01;101159.84;;;8.98;46.89
46756;BME280;32506;52.826;-1.192;2023-04-21T03:03:27;101146.53;;;8.98;47.31
46756;BME280;32506;52.826;-1.192;2023-04-21T03:06:00;101143.03;;;8.98;47.12
46756;BME280;32506;52.826;-1.192;2023-04-21T03:08:26;101140.38;;;8.98;47.07
46756;BME280;32506;52.826;-1.192;2023-04-21T03:10:52;101143.84;;;8.98;47.20
46756;BME280;32506;52.826;-1.192;2023-04-21T03:13:18;101145.72;;;8.98;47.65
46756;BME280;32506;52.826;-1.192;2023-04-21T03:15:43;101134.03;;;8.99;47.23
46756;BME280;32506;52.826;-1.192;2023-04-21T03:18:09;101141.19;;;8.98;47.49
46756;BME280;32506;52.826;-1.192;2023-04-21T03:20:35;101140.38;;;8.98;47.56
46756;BME280;32506;52.826;-1.192;2023-04-21T03:23:00;101135.84;;;8.98;47.85
46756;BME280;32506;52.826;-1.192;2023-04-21T03:25:26;101129.72;;;8.98;47.86
46756;BME280;32506;52.826;-1.192;2023-04-21T03:27:52;101123.56;;;8.97;47.95
46756;BME280;32506;52.826;-1.192;2023-04-21T03:30:18;101120.06;;;8.97;47.93
46756;BME280;32506;52.826;-1.192;2023-04-21T03:32:44;101100.38;;;8.98;47.92
46756;BME280;32506;52.826;-1.192;2023-04-21T03:35:09;101105.72;;;8.98;47.76
46756;BME280;32506;52.826;-1.192;2023-04-21T03:37:35;101096.91;;;8.97;47.82
46756;BME280;32506;52.826;-1.192;2023-04-21T03:40:00;101096.06;;;8.97;47.56
46756;BME280;32506;52.826;-1.192;2023-04-21T03:42:26;101094.25;;;8.97;47.84
46756;BME280;32506;52.826;-1.192;2023-04-21T03:44:53;101081.91;;;8.96;47.79
46756;BME280;32506;52.826;-1.192;2023-04-21T03:47:19;101067.56;;;8.97;47.84
46756;BME280;32506;52.826;-1.192;2023-04-21T03:49:44;101060.59;;;8.96;47.80
46756;BME280;32506;52.826;-1.192;2023-04-21T03:52:10;101051.78;;;8.96;48.09
46756;BME280;32506;52.826;-1.192;2023-04-21T03:54:36;101040.28;;;8.95;47.64
46756;BME280;32506;52.826;-1.192;2023-04-21T03:57:01;101028.78;;;8.95;48.19
46756;BME280;32506;52.826;-1.192;2023-04-21T03:59:27;101028.78;;;8.95;48.03
46756;BME280;32506;52.826;-1.192;2023-04-21T04:01:52;101026.13;;;8.95;48.28
46756;BME280;32506;52.826;-1.192;2023-04-21T04:04:18;101013.81;;;8.94;47.88
46756;BME280;32506;52.826;-1.192;2023-04-21T04:06:44;101001.47;;;8.93;47.72
46756;BME280;32506;52.826;-1.192;2023-04-21T04:09:09;100994.34;;;8.93;48.14
46756;BME280;32506;52.826;-1.192;2023-04-21T04:11:35;100990.81;;;8.93;48.43
46756;BME280;32506;52.826;-1.192;2023-04-21T04:14:00;100976.88;;;8.90;48.06
46756;BME280;32506;52.826;-1.192;2023-04-21T04:16:26;100975.84;;;8.92;48.42
46756;BME280;32506;52.826;-1.192;2023-04-21T04:18:53;100974.22;;;8.90;48.14
46756;BME280;32506;52.826;-1.192;2023-04-21T04:21:18;100956.38;;;8.91;47.97
46756;BME280;32506;52.826;-1.192;2023-04-21T04:23:44;100953.09;;;8.89;47.75
46756;BME280;32506;52.826;-1.192;2023-04-21T04:26:09;100947.75;;;8.89;47.80
46756;BME280;32506;52.826;-1.192;2023-04-21T04:28:35;100948.75;;;8.88;48.05
46756;BME280;32506;52.826;-1.192;2023-04-21T04:31:01;100939.94;;;8.87;47.88
46756;BME280;32506;52.826;-1.192;2023-04-21T04:33:27;100934.59;;;8.87;48.07
46756;BME280;32506;52.826;-1.192;2023-04-21T04:35:52;100930.09;;;8.88;47.78
46756;BME280;32506;52.826;-1.192;2023-04-21T04:38:18;100928.44;;;8.87;47.82
46756;BME280;32506;52.826;-1.192;2023-04-21T04:40:44;100922.31;;;8.86;47.64
46756;BME280;32506;52.826;-1.192;2023-04-21T04:43:09;100908.34;;;8.84;47.66
46756;BME280;32506;52.826;-1.192;2023-04-21T04:45:35;100911.00;;;8.84;47.50
46756;BME280;32506;52.826;-1.192;2023-04-21T04:48:02;100904.84;;;8.84;47.43
46756;BME280;32506;52.826;-1.192;2023-04-21T04:50:28;100896.00;;;8.83;47.65
46756;BME280;32506;52.826;-1.192;2023-04-21T04:52:53;100897.88;;;8.83;47.30
46756;BME280;32506;52.826;-1.192;2023-04-21T04:55:20;100883.91;;;8.81;47.34
46756;BME280;32506;52.826;-1.192;2023-04-21T04:57:46;100875.91;;;8.81;47.18
46756;BME280;32506;52.826;-1.192;2023-04-21T05:00:12;100878.56;;;8.81;47.47
46756;BME280;32506;52.826;-1.192;2023-04-21T05:02:39;100874.09;;;8.81;47.25
46756;BME280;32506;52.826;-1.192;2023-04-21T05:05:05;100866.28;;;8.80;46.93
46756;BME280;32506;52.826;-1.192;2023-04-21T05:07:34;100872.44;;;8.80;47.36
46756;BME280;32506;52.826;-1.192;2023-04-21T05:10:00;100873.44;;;8.79;47.25
46756;BME280;32506;52.826;-1.192;2023-04-21T05:12:25;100874.28;;;8.80;47.17
46756;BME280;32506;52.826;-1.192;2023-04-21T05:14:51;100871.78;;;8.78;47.05
46756;BME280;32506;52.826;-1.192;2023-04-21T05:17:16;100880.63;;;8.79;46.69
46756;BME280;32506;52.826;-1.192;2023-04-21T05:19:42;100869.13;;;8.78;46.68
46756;BME280;32506;52.826;-1.192;2023-04-21T05:22:07;100880.63;;;8.79;46.59
46756;BME280;32506;52.826;-1.192;2023-04-21T05:24:33;100879.78;;;8.78;46.87
46756;BME280;32506;52.826;-1.192;2023-04-21T05:26:59;100874.66;;;8.77;46.67
46756;BME280;32506;52.826;-1.192;2023-04-21T05:29:25;100875.50;;;8.77;46.75
46756;BME280;32506;52.826;-1.192;2023-04-21T05:31:50;100861.31;;;8.77;46.95
46756;BME280;32506;52.826;-1.192;2023-04-21T05:34:16;100865.03;;;8.76;46.47
46756;BME280;32506;52.826;-1.192;2023-04-21T05:36:41;100869.31;;;8.77;46.37
46756;BME280;32506;52.826;-1.192;2023-04-21T05:39:07;100879.97;;;8.77;46.76
46756;BME280;32506;52.826;-1.192;2023-04-21T05:41:32;100889.00;;;8.76;46.44
46756;BME280;32506;52.826;-1.192;2023-04-21T05:43:58;100892.50;;;8.76;46.58
46756;BME280;32506;52.826;-1.192;2023-04-21T05:46:23;100874.66;;;8.77;46.57
46756;BME280;32506;52.826;-1.192;2023-04-21T05:48:49;100871.16;;;8.76;46.59
46756;BME280;32506;52.826;-1.192;2023-04-21T05:51:14;100854.16;;;8.77;46.65
46756;BME280;32506;52.826;-1.192;2023-04-21T05:53:41;100852.50;;;8.76;46.55
46756;BME280;32506;52.826;-1.192;2023-04-21T05:56:08;100854.16;;;8.77;46.21
46756;BME280;32506;52.826;-1.192;2023-04-21T05:58:34;100846.16;;;8.77;46.57
46756;BME280;32506;52.826;-1.192;2023-04-21T06:01:00;100838.19;;;8.77;46.58
46756;BME280;32506;52.826;-1.192;2023-04-21T06:03:25;100824.84;;;8.77;46.67
46756;BME280;32506;52.826;-1.192;2023-04-21T06:05:54;100827.50;;;8.77;46.46
46756;BME280;32506;52.826;-1.192;2023-04-21T06:08:20;100843.50;;;8.77;46.57
46756;BME280;32506;52.826;-1.192;2023-04-21T06:10:46;100848.63;;;8.79;46.61
46756;BME280;32506;52.826;-1.192;2023-04-21T06:13:11;100853.97;;;8.79;46.58
46756;BME280;32506;52.826;-1.192;2023-04-21T06:15:37;100844.13;;;8.79;46.58
46756;BME280;32506;52.826;-1.192;2023-04-21T06:18:02;100842.28;;;8.80;46.33
46756;BME280;32506;52.826;-1.192;2023-04-21T06:20:28;100830.78;;;8.79;46.60
46756;BME280;32506;52.826;-1.192;2023-04-21T06:22:53;100817.28;;;8.81;46.46
46756;BME280;32506;52.826;-1.192;2023-04-21T06:25:19;100812.78;;;8.81;46.93
46756;BME280;32506;52.826;-1.192;2023-04-21T06:27:45;100808.25;;;8.82;46.63
46756;BME280;32506;52.826;-1.192;2023-04-21T06:30:11;100812.59;;;8.83;46.93
46756;BME280;32506;52.826;-1.192;2023-04-21T06:35:42;100794.75;;;8.83;46.92
46756;BME280;32506;52.826;-1.192;2023-04-21T06:38:08;100783.25;;;8.83;46.82
46756;BME280;32506;52.826;-1.192;2023-04-21T06:40:33;100775.88;;;8.85;46.72
46756;BME280;32506;52.826;-1.192;2023-04-21T06:42:59;100764.41;;;8.84;46.61
46756;BME280;32506;52.826;-1.192;2023-04-21T06:45:24;100755.41;;;8.85;46.90
46756;BME280;32506;52.826;-1.192;2023-04-21T06:47:50;100748.00;;;8.87;47.01
46756;BME280;32506;52.826;-1.192;2023-04-21T06:50:15;100745.16;;;8.89;46.68
46756;BME280;32506;52.826;-1.192;2023-04-21T06:52:41;100738.19;;;8.88;47.05
46756;BME280;32506;52.826;-1.192;2023-04-21T06:55:07;100742.50;;;8.89;47.05
46756;BME280;32506;52.826;-1.192;2023-04-21T06:57:32;100734.50;;;8.89;47.00
46756;BME280;32506;52.826;-1.192;2023-04-21T06:59:58;100745.97;;;8.89;46.78
46756;BME280;32506;52.826;-1.192;2023-04-21T07:02:23;100735.13;;;8.91;47.15
46756;BME280;32506;52.826;-1.192;2023-04-21T07:04:48;100722.59;;;8.92;47.11
46756;BME280;32506;52.826;-1.192;2023-04-21T07:07:14;100731.44;;;8.92;47.30
46756;BME280;32506;52.826;-1.192;2023-04-21T07:09:40;100728.56;;;8.94;47.49
46756;BME280;32506;52.826;-1.192;2023-04-21T07:12:05;100736.56;;;8.94;47.61
46756;BME280;32506;52.826;-1.192;2023-04-21T07:14:30;100727.56;;;8.95;47.84
46756;BME280;32506;52.826;-1.192;2023-04-21T07:16:56;100721.38;;;8.94;47.76
46756;BME280;32506;52.826;-1.192;2023-04-21T07:19:22;100716.69;;;8.96;47.77
46756;BME280;32506;52.826;-1.192;2023-04-21T07:21:47;100721.00;;;8.97;47.70
46756;BME280;32506;52.826;-1.192;2023-04-21T07:24:13;100715.69;;;8.97;48.12
46756;BME280;32506;52.826;-1.192;2023-04-21T07:26:38;100714.63;;;8.98;48.30
46756;BME280;32506;52.826;-1.192;2023-04-21T07:29:04;100717.13;;;9.00;48.22
46756;BME280;32506;52.826;-1.192;2023-04-21T07:31:29;100702.97;;;8.99;48.29
46756;BME280;32506;52.826;-1.192;2023-04-21T07:33:54;100699.28;;;9.00;48.67
46756;BME280;32506;52.826;-1.192;2023-04-21T07:36:20;100694.75;;;9.01;48.56
46756;BME280;32506;52.826;-1.192;2023-04-21T07:38:45;100691.91;;;9.02;48.81
46756;BME280;32506;52.826;-1.192;2023-04-21T07:41:12;100713.25;;;9.02;48.76
46756;BME280;32506;52.826;-1.192;2023-04-21T07:43:39;100715.72;;;9.04;49.06
46756;BME280;32506;52.826;-1.192;2023-04-21T07:46:05;100723.72;;;9.04;48.93
46756;BME280;32506;52.826;-1.192;2023-04-21T07:48:30;100708.53;;;9.04;49.08
46756;BME280;32506;52.826;-1.192;2023-04-21T07:50:56;100716.31;;;9.06;49.24
46756;BME280;32506;52.826;-1.192;2023-04-21T07:53:25;100710.16;;;9.05;49.25
46756;BME280;32506;52.826;-1.192;2023-04-21T07:55:52;100708.13;;;9.07;49.68
46756;BME280;32506;52.826;-1.192;2023-04-21T07:58:17;100704.44;;;9.09;49.56
46756;BME280;32506;52.826;-1.192;2023-04-21T08:00:43;100704.22;;;9.10;49.59
46756;BME280;32506;52.826;-1.192;2023-04-21T08:03:08;100702.41;;;9.11;49.62
46756;BME280;32506;52.826;-1.192;2023-04-21T08:05:34;100707.53;;;9.12;50.14
46756;BME280;32506;52.826;-1.192;2023-04-21T08:08:00;100695.84;;;9.13;49.88
46756;BME280;32506;52.826;-1.192;2023-04-21T08:10:25;100680.47;;;9.15;50.20
46756;BME280;32506;52.826;-1.192;2023-04-21T08:12:50;100674.09;;;9.16;50.35
46756;BME280;32506;52.826;-1.192;2023-04-21T08:15:16;100674.53;;;9.20;50.26
46756;BME280;32506;52.826;-1.192;2023-04-21T08:17:42;100683.94;;;9.22;50.31
46756;BME280;32506;52.826;-1.192;2023-04-21T08:20:08;100685.41;;;9.25;50.60
46756;BME280;32506;52.826;-1.192;2023-04-21T08:22:33;100673.50;;;9.28;50.12
46756;BME280;32506;52.826;-1.192;2023-04-21T08:25:01;100677.63;;;9.30;50.31
46756;BME280;32506;52.826;-1.192;2023-04-21T08:27:26;100678.03;;;9.34;50.78
46756;BME280;32506;52.826;-1.192;2023-04-21T08:29:52;100683.97;;;9.36;51.17
46756;BME280;32506;52.826;-1.192;2023-04-21T08:32:17;100686.25;;;9.39;51.01
46756;BME280;32506;52.826;-1.192;2023-04-21T08:34:48;100688.53;;;9.42;50.91
46756;BME280;32506;52.826;-1.192;2023-04-21T08:37:14;100690.78;;;9.45;51.41
46756;BME280;32506;52.826;-1.192;2023-04-21T08:39:39;100672.72;;;9.47;51.38
46756;BME280;32506;52.826;-1.192;2023-04-21T08:42:06;100662.66;;;9.49;51.68
46756;BME280;32506;52.826;-1.192;2023-04-21T08:44:32;100671.09;;;9.53;51.79
46756;BME280;32506;52.826;-1.192;2023-04-21T08:46:58;100676.22;;;9.54;51.56
46756;BME280;32506;52.826;-1.192;2023-04-21T08:49:25;100677.66;;;9.57;52.14
46756;BME280;32506;52.826;-1.192;2023-04-21T08:51:53;100682.78;;;9.58;51.62
46756;BME280;32506;52.826;-1.192;2023-04-21T08:54:19;100675.41;;;9.61;51.68
46756;BME280;32506;52.826;-1.192;2023-04-21T08:56:46;100681.34;;;9.63;51.77
46756;BME280;32506;52.826;-1.192;2023-04-21T08:59:12;100667.00;;;9.64;51.75
46756;BME280;32506;52.826;-1.192;2023-04-21T09:04:33;100670.09;;;9.67;51.39
46756;BME280;32506;52.826;-1.192;2023-04-21T09:06:58;100670.91;;;9.68;51.45
46756;BME280;32506;52.826;-1.192;2023-04-21T09:09:24;100672.53;;;9.69;51.81
46756;BME280;32506;52.826;-1.192;2023-04-21T09:11:56;100673.97;;;9.71;51.65
46756;BME280;32506;52.826;-1.192;2023-04-21T09:14:30;100672.13;;;9.72;51.65
46756;BME280;32506;52.826;-1.192;2023-04-21T09:17:02;100676.44;;;9.73;51.33
46756;BME280;32506;52.826;-1.192;2023-04-21T09:19:29;100669.25;;;9.73;51.75
46756;BME280;32506;52.826;-1.192;2023-04-21T09:21:59;100670.09;;;9.74;51.73
46756;BME280;32506;52.826;-1.192;2023-04-21T09:24:24;100668.03;;;9.76;51.89
46756;BME280;32506;52.826;-1.192;2023-04-21T09:26:50;100670.50;;;9.78;51.89
46756;BME280;32506;52.826;-1.192;2023-04-21T09:29:16;100670.91;;;9.81;52.04
46756;BME280;32506;52.826;-1.192;2023-04-21T09:31:43;100671.75;;;9.82;51.77
46756;BME280;32506;52.826;-1.192;2023-04-21T09:34:25;100673.78;;;9.86;51.52
46756;BME280;32506;52.826;-1.192;2023-04-21T09:37:01;100671.91;;;9.87;51.44
46756;BME280;32506;52.826;-1.192;2023-04-21T09:39:28;100668.44;;;9.86;51.69
46756;BME280;32506;52.826;-1.192;2023-04-21T09:41:55;100669.06;;;9.88;51.76
46756;BME280;32506;52.826;-1.192;2023-04-21T09:44:21;100676.03;;;9.89;51.83
46756;BME280;32506;52.826;-1.192;2023-04-21T09:46:48;100680.34;;;9.90;51.58
46756;BME280;32506;52.826;-1.192;2023-04-21T09:49:16;100680.13;;;9.92;51.44
46756;BME280;32506;52.826;-1.192;2023-04-21T09:51:42;100675.63;;;9.93;51.40
46756;BME280;32506;52.826;-1.192;2023-04-21T09:54:19;100668.22;;;9.95;51.50
46756;BME280;32506;52.826;-1.192;2023-04-21T09:56:48;100675.00;;;9.97;51.53
46756;BME280;32506;52.826;-1.192;2023-04-21T09:59:18;100665.97;;;9.98;51.51
46756;BME280;32506;52.826;-1.192;2023-04-21T10:01:47;100672.75;;;10.01;51.76
46756;BME280;32506;52.826;-1.192;2023-04-21T10:04:14;100665.34;;;10.03;51.66
46756;BME280;32506;52.826;-1.192;2023-04-21T10:06:40;100670.28;;;10.06;51.86
46756;BME280;32506;52.826;-1.192;2023-04-21T10:09:08;100663.50;;;10.10;52.14
46756;BME280;32506;52.826;-1.192;2023-04-21T10:11:35;100661.44;;;10.12;52.34
46756;BME280;32506;52.826;-1.192;2023-04-21T10:14:01;100660.63;;;10.18;53.09
46756;BME280;32506;52.826;-1.192;2023-04-21T10:16:27;100662.84;;;10.21;53.09
46756;BME280;32506;52.826;-1.192;2023-04-21T10:18:53;100663.69;;;10.29;53.81
46756;BME280;32506;52.826;-1.192;2023-04-21T10:21:20;100656.47;;;10.43;55.07
46756;BME280;32506;52.826;-1.192;2023-04-21T10:23:51;100653.13;;;10.54;56.17
46756;BME280;32506;52.826;-1.192;2023-04-21T10:26:26;100658.66;;;10.66;56.50
46756;BME280;32506;52.826;-1.192;2023-04-21T10:29:04;100650.00;;;10.77;57.30
46756;BME280;32506;52.826;-1.192;2023-04-21T10:31:50;100649.31;;;10.88;57.45
46756;BME280;32506;52.826;-1.192;2023-04-21T10:34:17;100641.03;;;10.97;57.47
46756;BME280;32506;52.826;-1.192;2023-04-21T10:37:06;100650.69;;;11.04;57.32
46756;BME280;32506;52.826;-1.192;2023-04-21T10:39:38;100644.47;;;11.11;56.73
46756;BME280;32506;52.826;-1.192;2023-04-21T10:44:51;100657.38;;;11.20;55.75
46756;BME280;32506;52.826;-1.192;2023-04-21T10:47:39;100644.41;;;11.24;55.44
46756;BME280;32506;52.826;-1.192;2023-04-21T10:52:37;100645.00;;;11.26;55.13
46756;BME280;32506;52.826;-1.192;2023-04-21T10:55:08;100652.78;;;11.28;54.94
46756;BME280;32506;52.826;-1.192;2023-04-21T10:57:37;100666.78;;;11.30;54.77
46756;BME280;32506;52.826;-1.192;2023-04-21T11:00:05;100659.13;;;11.33;54.36
46756;BME280;32506;52.826;-1.192;2023-04-21T11:02:32;100656.03;;;11.36;54.28
46756;BME280;32506;52.826;-1.192;2023-04-21T11:04:59;100654.19;;;11.37;54.37
46756;BME280;32506;52.826;-1.192;2023-04-21T11:07:25;100647.56;;;11.39;54.05
46756;BME280;32506;52.826;-1.192;2023-04-21T11:10:02;100644.47;;;11.42;54.09
46756;BME280;32506;52.826;-1.192;2023-04-21T11:12:30;100644.84;;;11.46;54.54
46756;BME280;32506;52.826;-1.192;2023-04-21T11:14:56;100651.19;;;11.52;54.96
46756;BME280;32506;52.826;-1.192;2023-04-21T11:17:22;100647.44;;;11.59;55.54
46756;BME280;32506;52.826;-1.192;2023-04-21T11:19:53;100641.00;;;11.67;54.98
46756;BME280;32506;52.826;-1.192;2023-04-21T11:22:21;100646.06;;;11.75;55.25
46756;BME280;32506;52.826;-1.192;2023-04-21T11:24:48;100635.31;;;11.82;55.26
46756;BME280;32506;52.826;-1.192;2023-04-21T11:27:14;100647.81;;;11.88;54.88
46756;BME280;32506;52.826;-1.192;2023-04-21T11:29:40;100646.34;;;11.92;55.03
46756;BME280;32506;52.826;-1.192;2023-04-21T11:32:07;100642.22;;;11.97;54.99
46756;BME280;32506;52.826;-1.192;2023-04-21T11:34:33;100636.81;;;12.03;54.92
46756;BME280;32506;52.826;-1.192;2023-04-21T11:36:58;100650.31;;;12.08;55.65
46756;BME280;32506;52.826;-1.192;2023-04-21T11:39:24;100639.53;;;12.15;55.17
46756;BME280;32506;52.826;-1.192;2023-04-21T11:41:50;100641.34;;;12.21;55.54
46756;BME280;32506;52.826;-1.192;2023-04-21T11:44:39;100645.38;;;12.31;55.47
46756;BME280;32506;52.826;-1.192;2023-04-21T11:52:24;100651.94;;;12.53;55.28
46756;BME280;32506;52.826;-1.192;2023-04-21T11:54:57;100650.81;;;12.61;55.26
46756;BME280;32506;52.826;-1.192;2023-04-21T11:57:23;100648.06;;;12.68;54.90
46756;BME280;32506;52.826;-1.192;2023-04-21T11:59:50;100652.88;;;12.78;54.96
46756;BME280;32506;52.826;-1.192;2023-04-21T12:02:24;100645.13;;;12.88;55.00
46756;BME280;32506;52.826;-1.192;2023-04-21T12:07:34;100644.41;;;13.11;54.68
46756;BME280;32506;52.826;-1.192;2023-04-21T12:10:01;100647.78;;;13.18;54.76
46756;BME280;32506;52.826;-1.192;2023-04-21T12:12:27;100649.09;;;13.27;54.50
46756;BME280;32506;52.826;-1.192;2023-04-21T12:14:53;100649.63;;;13.36;54.19
46756;BME280;32506;52.826;-1.192;2023-04-21T12:17:19;100653.63;;;13.46;54.30
46756;BME280;32506;52.826;-1.192;2023-04-21T12:19:45;100650.16;;;13.57;54.80
46756;BME280;32506;52.826;-1.192;2023-04-21T12:22:12;100651.22;;;13.68;54.68
46756;BME280;32506;52.826;-1.192;2023-04-21T12:24:39;100650.41;;;13.79;54.71
46756;BME280;32506;52.826;-1.192;2023-04-21T12:27:05;100656.00;;;13.89;54.67
46756;BME280;32506;52.826;-1.192;2023-04-21T12:29:32;100653.81;;;13.98;54.21
46756;BME280;32506;52.826;-1.192;2023-04-21T12:32:00;100649.25;;;14.10;54.50
46756;BME280;32506;52.826;-1.192;2023-04-21T12:34:25;100645.84;;;14.27;54.45
46756;BME280;32506;52.826;-1.192;2023-04-21T12:36:51;100646.97;;;14.43;54.44
46756;BME280;32506;52.826;-1.192;2023-04-21T12:39:16;100649.41;;;14.56;54.23
46756;BME280;32506;52.826;-1.192;2023-04-21T12:41:43;100637.84;;;14.68;53.92
46756;BME280;32506;52.826;-1.192;2023-04-21T12:44:08;100637.31;;;14.83;54.04
46756;BME280;32506;52.826;-1.192;2023-04-21T12:46:34;100639.50;;;14.98;53.95
46756;BME280;32506;52.826;-1.192;2023-04-21T12:48:59;100642.94;;;15.10;53.87
46756;BME280;32506;52.826;-1.192;2023-04-21T12:51:25;100645.56;;;15.22;53.42
46756;BME280;32506;52.826;-1.192;2023-04-21T12:53:50;100652.22;;;15.31;53.26
46756;BME280;32506;52.826;-1.192;2023-04-21T12:56:17;100647.47;;;15.38;52.89
46756;BME280;32506;52.826;-1.192;2023-04-21T12:58:42;100650.81;;;15.46;52.31
46756;BME280;32506;52.826;-1.192;2023-04-21T13:01:08;100648.78;;;15.53;51.98
46756;BME280;32506;52.826;-1.192;2023-04-21T13:03:33;100650.28;;;15.60;51.77
46756;BME280;32506;52.826;-1.192;2023-04-21T13:05:59;100648.56;;;15.71;51.51
46756;BME280;32506;52.826;-1.192;2023-04-21T13:08:25;100652.34;;;15.87;51.36